createdAt,value
2023-03-11T00:00:41.013Z,97293.38
2023-03-11T00:03:25.184Z,97290.23
2023-03-11T00:05:58.893Z,97283.85
2023-03-11T00:08:33.329Z,97280.81
2023-03-11T00:11:04.038Z,97275.63
2023-03-11T00:13:48.352Z,97268.18
2023-03-11T00:16:38.833Z,97266.70
2023-03-11T00:19:08.212Z,97262.36
2023-03-11T00:24:57.890Z,97250.15
2023-03-11T00:27:28.734Z,97249.66
2023-03-11T00:29:57.565Z,97247.66
2023-03-11T00:32:26.636Z,97242.98
2023-03-11T00:35:00.663Z,97235.98
2023-03-11T00:37:29.937Z,97226.54
2023-03-11T00:40:02.363Z,97219.20
2023-03-11T00:42:33.743Z,97212.33
2023-03-11T00:45:06.806Z,97210.31
2023-03-11T00:47:39.065Z,97205.04
2023-03-11T00:50:11.601Z,97202.27
2023-03-11T00:52:42.691Z,97204.55
2023-03-11T00:55:15.639Z,97212.00
2023-03-11T00:57:46.431Z,97214.85
2023-03-11T01:00:21.257Z,97207.94
2023-03-11T01:02:57.751Z,97205.63
2023-03-11T01:05:31.352Z,97200.89
2023-03-11T01:08:05.399Z,97195.54
2023-03-11T01:10:37.064Z,97193.61
2023-03-11T01:13:06.577Z,97194.95
2023-03-11T01:15:39.233Z,97191.62
2023-03-11T01:18:10.303Z,97190.89
2023-03-11T01:20:39.490Z,97187.83
2023-03-11T01:23:11.220Z,97189.73
2023-03-11T01:25:41.444Z,97183.63
2023-03-11T01:28:14.298Z,97178.80
2023-03-11T01:30:46.248Z,97181.92
2023-03-11T01:33:19.907Z,97181.00
2023-03-11T01:35:49.701Z,97178.36
2023-03-11T01:38:21.331Z,97178.27
2023-03-11T01:40:52.878Z,97178.48
2023-03-11T01:44:00.953Z,97178.77
2023-03-11T01:46:54.190Z,97175.70
2023-03-11T01:49:33.298Z,97176.48
2023-03-11T01:52:08.250Z,97172.81
2023-03-11T01:54:45.446Z,97170.54
2023-03-11T01:57:16.332Z,97168.48
2023-03-11T01:59:51.341Z,97174.86
2023-03-11T02:02:46.075Z,97172.98
2023-03-11T02:05:22.594Z,97168.24
2023-03-11T02:07:54.474Z,97167.73
2023-03-11T02:10:26.122Z,97164.67
2023-03-11T02:12:58.066Z,97166.61
2023-03-11T02:15:31.240Z,97162.15
2023-03-11T02:18:05.660Z,97162.10
2023-03-11T02:20:49.664Z,97158.16
2023-03-11T02:23:23.785Z,97162.02
2023-03-11T02:26:15.624Z,97171.00
2023-03-11T02:28:49.901Z,97173.10
2023-03-11T02:31:22.376Z,97167.81
2023-03-11T02:33:53.707Z,97170.52
2023-03-11T02:36:36.340Z,97168.27
2023-03-11T02:39:07.233Z,97177.09
2023-03-11T02:41:42.427Z,97178.28
2023-03-11T02:44:16.242Z,97182.08
2023-03-11T02:46:49.271Z,97187.55
2023-03-11T02:49:21.280Z,97192.36
2023-03-11T02:51:52.674Z,97192.10
2023-03-11T02:54:28.414Z,97198.17
2023-03-11T02:56:59.853Z,97199.18
2023-03-11T02:59:31.520Z,97203.77
2023-03-11T03:02:03.327Z,97205.13
2023-03-11T03:04:33.550Z,97214.00
2023-03-11T03:07:04.359Z,97216.24
2023-03-11T03:09:36.729Z,97218.39
2023-03-11T03:12:08.320Z,97214.39
2023-03-11T03:14:37.754Z,97212.25
2023-03-11T03:17:07.184Z,97217.10
2023-03-11T03:19:37.146Z,97218.05
2023-03-11T03:22:08.394Z,97220.80
2023-03-11T03:24:38.534Z,97224.34
2023-03-11T03:27:09.930Z,97223.51
2023-03-11T03:29:39.938Z,97223.35
2023-03-11T03:32:10.770Z,97223.82
2023-03-11T03:34:39.793Z,97224.75
2023-03-11T03:37:12.403Z,97231.52
2023-03-11T03:39:43.256Z,97233.60
2023-03-11T03:42:14.277Z,97231.26
2023-03-11T03:44:45.625Z,97239.21
2023-03-11T03:47:16.884Z,97237.65
2023-03-11T03:49:48.560Z,97238.44
2023-03-11T03:52:22.161Z,97242.95
2023-03-11T03:54:55.176Z,97244.98
2023-03-11T03:57:26.586Z,97245.81
2023-03-11T03:59:57.010Z,97251.52
2023-03-11T04:02:27.225Z,97253.81
2023-03-11T04:04:58.885Z,97256.45
2023-03-11T04:07:30.531Z,97260.70
2023-03-11T04:10:00.833Z,97261.95
2023-03-11T04:12:34.209Z,97261.94
2023-03-11T04:15:04.840Z,97260.27
2023-03-11T04:17:38.961Z,97264.94
2023-03-11T04:20:11.203Z,97262.30
2023-03-11T04:22:41.714Z,97263.59
2023-03-11T04:25:12.220Z,97264.70
2023-03-11T04:27:46.302Z,97272.69
2023-03-11T04:30:17.404Z,97280.16
2023-03-11T04:32:47.433Z,97281.55
2023-03-11T04:35:21.679Z,97280.19
2023-03-11T04:37:53.357Z,97282.61
2023-03-11T04:40:24.728Z,97285.61
2023-03-11T04:42:55.286Z,97290.14
2023-03-11T04:45:25.726Z,97298.11
2023-03-11T04:48:01.725Z,97299.94
2023-03-11T04:50:33.299Z,97308.20
2023-03-11T04:53:04.181Z,97311.79
2023-03-11T04:55:35.162Z,97300.02
2023-03-11T04:58:05.500Z,97295.15
2023-03-11T05:00:36.930Z,97293.77
2023-03-11T05:03:13.404Z,97293.64
2023-03-11T05:05:44.859Z,97284.70
2023-03-11T05:08:16.290Z,97284.05
2023-03-11T05:10:48.770Z,97283.05
2023-03-11T05:13:21.412Z,97289.85
2023-03-11T05:15:53.394Z,97287.52
2023-03-11T05:18:23.248Z,97297.73
2023-03-11T05:20:55.039Z,97298.27
2023-03-11T05:23:30.462Z,97290.11
2023-03-11T05:26:01.101Z,97284.36
2023-03-11T05:28:32.443Z,97292.69
2023-03-11T05:31:02.954Z,97298.39
2023-03-11T05:33:36.127Z,97300.05
2023-03-11T05:36:10.746Z,97307.09
2023-03-11T05:38:43.309Z,97315.02
2023-03-11T05:41:13.993Z,97319.80
2023-03-11T05:43:45.106Z,97319.80
2023-03-11T05:46:17.053Z,97321.46
2023-03-11T05:48:50.278Z,97325.59
2023-03-11T05:51:20.153Z,97325.06
2023-03-11T05:53:53.060Z,97330.46
2023-03-11T05:56:30.045Z,97331.34
2023-03-11T05:59:01.271Z,97337.52
2023-03-11T06:01:33.226Z,97341.42
2023-03-11T06:04:04.132Z,97341.27
2023-03-11T06:06:34.688Z,97345.48
2023-03-11T06:09:04.759Z,97348.45
2023-03-11T06:11:37.196Z,97354.06
2023-03-11T06:14:07.881Z,97362.64
2023-03-11T06:16:36.989Z,97365.48
2023-03-11T06:19:10.026Z,97369.88
2023-03-11T06:21:43.229Z,97378.63
2023-03-11T06:24:12.767Z,97388.81
2023-03-11T06:26:44.650Z,97393.42
2023-03-11T06:29:15.900Z,97403.52
2023-03-11T06:31:46.723Z,97408.85
2023-03-11T06:34:17.588Z,97415.27
2023-03-11T06:36:48.938Z,97424.04
2023-03-11T06:39:19.827Z,97432.46
2023-03-11T06:41:51.158Z,97434.80
2023-03-11T06:44:23.189Z,97445.44
2023-03-11T06:46:54.437Z,97448.92
2023-03-11T06:49:25.177Z,97453.81
2023-03-11T06:51:58.626Z,97451.80
2023-03-11T06:54:32.632Z,97461.20
2023-03-11T06:57:04.175Z,97464.46
2023-03-11T06:59:33.681Z,97471.67
2023-03-11T07:02:06.642Z,97470.83
2023-03-11T07:04:36.910Z,97483.30
2023-03-11T07:07:10.842Z,97486.56
2023-03-11T07:09:41.266Z,97492.08
2023-03-11T07:12:15.128Z,97504.50
2023-03-11T07:14:44.754Z,97508.23
2023-03-11T07:17:15.743Z,97511.79
2023-03-11T07:19:48.488Z,97524.25
2023-03-11T07:22:21.421Z,97531.56
2023-03-11T07:24:52.133Z,97530.34
2023-03-11T07:27:24.110Z,97543.48
2023-03-11T07:29:55.286Z,97551.94
2023-03-11T07:32:26.619Z,97552.95
2023-03-11T07:35:00.030Z,97561.25
2023-03-11T07:37:32.251Z,97568.27
2023-03-11T07:40:03.988Z,97578.45
2023-03-11T07:42:36.527Z,97581.37
2023-03-11T07:45:07.174Z,97580.86
2023-03-11T07:47:41.789Z,97586.33
2023-03-11T07:50:12.524Z,97589.58
2023-03-11T07:52:44.346Z,97589.52
2023-03-11T07:55:18.028Z,97593.84
2023-03-11T07:57:49.570Z,97594.77
2023-03-11T08:00:21.285Z,97590.64
2023-03-11T08:02:51.681Z,97588.64
2023-03-11T08:05:24.509Z,97593.30
2023-03-11T08:07:57.568Z,97606.14
2023-03-11T08:10:28.053Z,97617.72
2023-03-11T08:12:58.643Z,97624.65
2023-03-11T08:15:29.556Z,97628.57
2023-03-11T08:18:01.611Z,97638.13
2023-03-11T08:25:27.522Z,97655.60
2023-03-11T08:27:57.951Z,97654.02
2023-03-11T08:30:28.589Z,97659.70
2023-03-11T08:32:58.160Z,97664.50
2023-03-11T08:35:27.550Z,97670.89
2023-03-11T08:37:57.203Z,97675.15
2023-03-11T08:40:29.921Z,97692.89
2023-03-11T08:43:00.172Z,97691.64
2023-03-11T08:45:30.052Z,97692.70
2023-03-11T08:48:00.514Z,97702.25
2023-03-11T08:50:44.190Z,97710.67
2023-03-11T08:53:23.221Z,97729.23
2023-03-11T08:55:54.253Z,97734.40
2023-03-11T08:58:24.934Z,97744.84
2023-03-11T09:01:03.420Z,97747.37
2023-03-11T09:03:36.615Z,97745.44
2023-03-11T09:06:12.646Z,97748.98
2023-03-11T09:08:47.142Z,97752.55
2023-03-11T09:11:22.448Z,97751.00
2023-03-11T09:13:52.326Z,97767.48
2023-03-11T09:16:24.167Z,97765.42
2023-03-11T09:18:54.857Z,97770.06
2023-03-11T09:21:25.096Z,97777.15
2023-03-11T09:23:56.399Z,97790.39
2023-03-11T09:26:26.914Z,97789.51
2023-03-11T09:29:15.411Z,97794.77
2023-03-11T09:31:50.308Z,97806.15
2023-03-11T09:34:19.641Z,97807.15
2023-03-11T09:36:50.285Z,97808.41
2023-03-11T09:39:28.903Z,97818.25
2023-03-11T09:42:04.303Z,97826.80
2023-03-11T09:44:44.573Z,97826.71
2023-03-11T09:47:37.243Z,97833.22
2023-03-11T09:50:22.828Z,97830.52
2023-03-11T09:53:16.201Z,97836.91
2023-03-11T09:55:59.581Z,97858.41
2023-03-11T09:58:36.991Z,97864.31
2023-03-11T10:01:18.824Z,97873.18
2023-03-11T10:04:01.151Z,97874.73
2023-03-11T10:06:31.791Z,97883.48
2023-03-11T10:09:07.897Z,97904.98
2023-03-11T10:11:55.541Z,97905.64
2023-03-11T10:14:50.125Z,97908.86
2023-03-11T10:17:53.498Z,97909.48
2023-03-11T10:20:32.444Z,97919.73
2023-03-11T10:23:22.906Z,97924.25
2023-03-11T10:26:02.625Z,97936.98
2023-03-11T10:29:05.275Z,97931.38
2023-03-11T10:32:08.229Z,97947.02
2023-03-11T10:34:45.333Z,97955.69
2023-03-11T10:37:33.229Z,97958.69
2023-03-11T10:40:21.000Z,97965.63
2023-03-11T10:42:52.918Z,97968.77
2023-03-11T10:45:24.109Z,97980.45
2023-03-11T10:47:53.968Z,97991.30
2023-03-11T10:50:26.093Z,97989.96
2023-03-11T10:53:08.902Z,97997.25
2023-03-11T10:55:50.832Z,98002.21
2023-03-11T10:58:26.385Z,98011.98
2023-03-11T11:01:04.401Z,98007.86
2023-03-11T11:03:35.119Z,98015.42
2023-03-11T11:06:07.955Z,98016.43
2023-03-11T11:08:37.345Z,98030.44
2023-03-11T11:11:22.111Z,98035.36
2023-03-11T11:13:59.500Z,98049.88
2023-03-11T11:16:30.417Z,98047.20
2023-03-11T11:19:12.603Z,98057.95
2023-03-11T11:25:36.212Z,98058.16
2023-03-11T11:28:35.114Z,98073.13
2023-03-11T11:31:19.902Z,98082.10
2023-03-11T11:33:55.669Z,98071.59
2023-03-11T11:36:31.122Z,98073.81
2023-03-11T11:39:21.268Z,98099.17
2023-03-11T11:42:40.663Z,98100.52
2023-03-11T11:46:14.886Z,98112.63
2023-03-11T11:49:24.792Z,98117.17
2023-03-11T12:02:29.250Z,98129.61
2023-03-11T12:09:11.480Z,98147.50
2023-03-11T12:14:44.813Z,98154.66
2023-03-11T12:17:26.455Z,98168.81
2023-03-11T12:20:09.021Z,98176.86
2023-03-11T12:22:56.803Z,98191.79
2023-03-11T12:26:03.880Z,98196.39
2023-03-11T12:28:59.309Z,98193.89
2023-03-11T12:31:35.562Z,98206.88
2023-03-11T12:34:08.599Z,98184.64
2023-03-11T12:36:44.142Z,98203.30
2023-03-11T12:39:40.406Z,98207.48
2023-03-11T12:42:41.175Z,98206.36
2023-03-11T12:45:48.042Z,98217.29
2023-03-11T12:48:40.594Z,98229.27
2023-03-11T12:58:38.667Z,98237.44
2023-03-11T13:01:48.296Z,98250.91
2023-03-11T13:04:46.187Z,98256.63
2023-03-11T13:07:26.245Z,98259.59
2023-03-11T13:10:19.255Z,98270.73
2023-03-11T13:12:51.521Z,98278.43
2023-03-11T13:15:36.589Z,98287.36
2023-03-11T13:18:34.086Z,98289.73
2023-03-11T13:21:05.486Z,98301.96
2023-03-11T13:23:40.897Z,98308.05
2023-03-11T13:26:43.600Z,98308.05
2023-03-11T13:29:47.474Z,98310.84
2023-03-11T13:32:54.216Z,98318.83
2023-03-11T13:35:32.444Z,98327.77
2023-03-11T13:39:03.882Z,98338.13
2023-03-11T13:41:36.766Z,98349.81
2023-03-11T13:44:30.888Z,98349.67
2023-03-11T13:47:21.776Z,98356.98
2023-03-11T13:50:07.427Z,98363.77
2023-03-11T13:52:54.118Z,98369.80
2023-03-11T13:55:36.633Z,98373.60
2023-03-11T13:58:30.801Z,98375.73
2023-03-11T14:01:25.498Z,98393.79
2023-03-11T14:03:55.030Z,98403.77
2023-03-11T14:06:25.395Z,98415.30
2023-03-11T14:21:36.478Z,98440.39
2023-03-11T14:24:17.179Z,98441.21
2023-03-11T14:27:33.298Z,98432.16
2023-03-11T14:30:06.248Z,98464.79
2023-03-11T14:32:45.509Z,98462.48
2023-03-11T14:35:21.480Z,98468.44
2023-03-11T14:41:41.073Z,98476.56
2023-03-11T14:44:18.935Z,98480.23
2023-03-11T14:53:31.136Z,98496.98
2023-03-11T14:56:09.392Z,98504.15
2023-03-11T14:58:55.683Z,98507.05
2023-03-11T15:01:46.692Z,98512.22
2023-03-11T15:04:34.468Z,98514.11
2023-03-11T15:07:09.639Z,98516.45
2023-03-11T15:09:43.684Z,98521.06
2023-03-11T15:12:43.105Z,98530.54
2023-03-11T15:15:32.262Z,98536.25
2023-03-11T15:18:03.781Z,98530.86
2023-03-11T15:20:36.598Z,98541.43
2023-03-11T15:23:23.711Z,98552.21
2023-03-11T15:25:55.240Z,98552.38
2023-03-11T15:28:33.314Z,98550.02
2023-03-11T15:31:22.729Z,98558.71
2023-03-11T15:33:54.319Z,98560.88
2023-03-11T15:36:41.048Z,98571.42
2023-03-11T15:39:21.946Z,98570.74
2023-03-11T15:42:08.053Z,98577.94
2023-03-11T15:45:03.456Z,98577.52
2023-03-11T15:47:36.437Z,98578.73
2023-03-11T15:50:46.934Z,98576.73
2023-03-11T15:53:51.726Z,98587.27
2023-03-11T15:56:33.561Z,98593.13
2023-03-11T15:59:05.613Z,98598.58
2023-03-11T16:01:40.999Z,98601.98
2023-03-11T16:04:17.129Z,98614.09
2023-03-11T16:07:07.144Z,98617.16
2023-03-11T16:09:41.636Z,98621.73
2023-03-11T16:12:24.401Z,98628.45
2023-03-11T16:14:56.809Z,98630.63
2023-03-11T16:17:46.685Z,98642.46
2023-03-11T16:20:22.112Z,98643.27
2023-03-11T16:23:03.414Z,98653.92
2023-03-11T16:25:39.786Z,98654.73
2023-03-11T16:28:14.229Z,98665.08
2023-03-11T16:30:44.501Z,98664.63
2023-03-11T16:33:13.999Z,98675.60
2023-03-11T16:35:44.075Z,98676.80
2023-03-11T16:38:15.086Z,98683.16
2023-03-11T16:40:45.033Z,98690.26
2023-03-11T16:43:19.718Z,98696.99
2023-03-11T16:45:50.123Z,98699.54
2023-03-11T16:48:23.060Z,98705.13
2023-03-11T16:50:52.744Z,98711.10
2023-03-11T16:53:26.163Z,98715.04
2023-03-11T16:55:56.998Z,98722.73
2023-03-11T16:58:27.275Z,98719.45
2023-03-11T17:01:00.604Z,98733.70
2023-03-11T17:03:41.878Z,98740.65
2023-03-11T17:06:13.210Z,98751.71
2023-03-11T17:08:49.835Z,98752.85
2023-03-11T17:11:25.431Z,98762.38
2023-03-11T17:14:13.645Z,98760.34
2023-03-11T17:16:47.579Z,98765.19
2023-03-11T17:19:19.912Z,98771.34
2023-03-11T17:21:51.472Z,98769.70
2023-03-11T17:24:23.808Z,98779.21
2023-03-11T17:26:57.533Z,98784.67
2023-03-11T17:29:31.877Z,98793.11
2023-03-11T17:32:03.166Z,98792.96
2023-03-11T17:34:34.657Z,98789.39
2023-03-11T17:37:06.271Z,98797.02
2023-03-11T17:39:37.368Z,98804.70
2023-03-11T17:42:07.989Z,98800.50
2023-03-11T17:44:51.126Z,98802.17
2023-03-11T17:47:26.510Z,98804.94
2023-03-11T17:49:56.707Z,98810.34
2023-03-11T17:52:32.716Z,98816.86
2023-03-11T17:55:04.402Z,98822.38
2023-03-11T17:57:45.026Z,98821.14
2023-03-11T18:00:18.437Z,98827.25
2023-03-11T18:02:48.177Z,98831.77
2023-03-11T18:05:22.030Z,98836.20
2023-03-11T18:07:59.425Z,98838.98
2023-03-11T18:10:30.525Z,98843.98
2023-03-11T18:13:03.804Z,98846.59
2023-03-11T18:15:37.655Z,98849.71
2023-03-11T18:18:09.145Z,98847.95
2023-03-11T18:20:40.634Z,98853.68
2023-03-11T18:23:12.264Z,98855.29
2023-03-11T18:25:46.276Z,98856.05
2023-03-11T18:28:19.314Z,98861.60
2023-03-11T18:30:49.103Z,98865.25
2023-03-11T18:33:25.516Z,98865.88
2023-03-11T18:36:02.065Z,98873.34
2023-03-11T18:38:40.226Z,98872.30
2023-03-11T18:41:17.355Z,98880.46
2023-03-11T18:43:59.997Z,98889.52
2023-03-11T18:46:34.393Z,98888.06
2023-03-11T18:49:08.164Z,98892.17
2023-03-11T18:51:43.074Z,98889.52
2023-03-11T18:54:16.404Z,98895.46
2023-03-11T18:56:48.556Z,98896.96
2023-03-11T18:59:23.453Z,98899.66
2023-03-11T19:01:57.720Z,98901.10
2023-03-11T19:04:31.384Z,98904.90
2023-03-11T19:07:04.645Z,98915.55
2023-03-11T19:09:37.396Z,98912.54
2023-03-11T19:12:07.603Z,98921.98
2023-03-11T19:14:38.879Z,98924.48
2023-03-11T19:17:14.652Z,98925.39
2023-03-11T19:19:46.220Z,98928.21
2023-03-11T19:22:17.963Z,98928.21
2023-03-11T19:24:48.114Z,98933.75
2023-03-11T19:27:19.327Z,98933.66
2023-03-11T19:29:49.984Z,98935.09
2023-03-11T19:32:24.286Z,98943.66
2023-03-11T19:34:58.576Z,98945.36
2023-03-11T19:37:30.768Z,98958.79
2023-03-11T19:40:02.344Z,98955.20
2023-03-11T19:42:35.110Z,98959.16
2023-03-11T19:45:09.771Z,98963.11
2023-03-11T19:47:47.361Z,98966.17
2023-03-11T19:50:40.607Z,98965.77
2023-03-11T19:53:13.663Z,98967.11
2023-03-11T19:55:48.912Z,98966.31
2023-03-11T19:58:22.431Z,98972.37
2023-03-11T20:00:54.307Z,98974.91
2023-03-11T20:03:27.311Z,98978.93
2023-03-11T20:06:00.464Z,98972.02
2023-03-11T20:08:37.394Z,98975.67
2023-03-11T20:11:11.142Z,98969.33
2023-03-11T20:13:45.708Z,98974.54
2023-03-11T20:16:19.014Z,98977.37
2023-03-11T20:18:51.163Z,98983.55
2023-03-11T20:21:24.533Z,98979.58
2023-03-11T20:23:57.532Z,98982.61
2023-03-11T20:26:31.195Z,98987.36
2023-03-11T20:29:02.508Z,98994.65
2023-03-11T20:31:41.562Z,98996.89
2023-03-11T20:34:13.391Z,98995.88
2023-03-11T20:36:47.927Z,99009.66
2023-03-11T20:39:19.722Z,99007.19
2023-03-11T20:41:51.103Z,99018.09
2023-03-11T20:44:23.224Z,99018.98
2023-03-11T20:46:57.617Z,99014.44
2023-03-11T20:49:29.782Z,99018.91
2023-03-11T20:52:02.183Z,99023.83
2023-03-11T20:54:34.322Z,99023.92
2023-03-11T20:57:06.501Z,99021.48
2023-03-11T20:59:38.273Z,99020.17
2023-03-11T21:02:11.855Z,99021.87
2023-03-11T21:04:48.936Z,99020.92
2023-03-11T21:07:20.980Z,99028.90
2023-03-11T21:09:56.332Z,99015.23
2023-03-11T21:12:31.306Z,99025.19
2023-03-11T21:15:03.067Z,99020.12
2023-03-11T21:17:35.584Z,99012.61
2023-03-11T21:20:10.142Z,99018.30
2023-03-11T21:22:40.612Z,99018.39
2023-03-11T21:25:10.343Z,99011.89
2023-03-11T21:27:40.424Z,99013.59
2023-03-11T21:30:13.608Z,99013.08
2023-03-11T21:32:43.970Z,99009.80
2023-03-11T21:35:18.225Z,99011.44
2023-03-11T21:37:48.736Z,99008.71
2023-03-11T21:40:20.262Z,99011.26
2023-03-11T21:42:51.942Z,99008.52
2023-03-11T21:45:25.813Z,99009.56
2023-03-11T21:47:59.170Z,99005.11
2023-03-11T21:50:29.839Z,99004.48
2023-03-11T21:53:00.680Z,99003.69
2023-03-11T21:55:35.315Z,99005.94
2023-03-11T21:58:09.407Z,99009.98
2023-03-11T22:00:39.308Z,99005.60
2023-03-11T22:03:09.965Z,99009.67
2023-03-11T22:05:40.758Z,99009.71
2023-03-11T22:08:16.025Z,99013.13
2023-03-11T22:10:48.529Z,99013.84
2023-03-11T22:13:19.354Z,99014.10
2023-03-11T22:15:50.390Z,99011.30
2023-03-11T22:18:21.606Z,99013.61
2023-03-11T22:20:52.374Z,99013.65
2023-03-11T22:23:22.549Z,99007.09
2023-03-11T22:25:53.639Z,99007.17
2023-03-11T22:28:24.313Z,99007.52
2023-03-11T22:30:56.114Z,99015.64
2023-03-11T22:33:26.914Z,99020.16
2023-03-11T22:35:57.902Z,99020.25
2023-03-11T22:38:28.187Z,99018.85
2023-03-11T22:41:00.668Z,99025.38
2023-03-11T22:43:29.824Z,99019.41
2023-03-11T22:46:02.220Z,99016.49
2023-03-11T22:48:33.354Z,99016.89
2023-03-11T22:51:05.447Z,99017.80
2023-03-11T22:53:38.041Z,99016.79
2023-03-11T22:56:10.394Z,99011.92
2023-03-11T22:58:41.847Z,99011.52
2023-03-11T23:01:11.929Z,99010.77
2023-03-11T23:03:43.780Z,99004.86
2023-03-11T23:06:19.196Z,99011.18
2023-03-11T23:08:50.629Z,99014.60
2023-03-11T23:11:23.680Z,99005.96
2023-03-11T23:13:54.220Z,98999.79
2023-03-11T23:16:27.307Z,99001.79
2023-03-11T23:18:57.345Z,99003.11
2023-03-11T23:21:32.535Z,98998.20
2023-03-11T23:24:05.388Z,99011.25
2023-03-11T23:26:35.865Z,99002.47
2023-03-11T23:29:07.536Z,99006.13
2023-03-11T23:31:38.665Z,99006.86
2023-03-11T23:34:09.990Z,98999.67
2023-03-11T23:36:40.003Z,98994.64
2023-03-11T23:39:11.470Z,98991.22
2023-03-11T23:41:41.746Z,98991.05
2023-03-11T23:44:11.806Z,98991.00
2023-03-11T23:46:44.472Z,98990.35
2023-03-11T23:49:16.011Z,98992.06
2023-03-11T23:51:45.100Z,98988.86
2023-03-11T23:54:17.591Z,98976.39
2023-03-11T23:56:47.775Z,98976.35
2023-03-11T23:59:17.978Z,98980.92
